Time;durP1;ratioP1;P1;durP2;ratioP2;P2;SDS_P1;SDS_P2;PMS_P1;PMS_P2;Temp;Humidity;BMP_temperature;BMP_pressure;BME280_temperature;BME280_humidity;BME280_pressure;Samples;Min_cycle;Max_cycle;Signal;HPM_P1;HPM_P2
2023/09/13 00:01:47;;;;;;;13.75;2.60;;;18.30;99.90;;;;;;5038051;28;20039;-57
2023/09/13 00:04:13;;;;;;;10.52;2.47;;;18.30;99.90;;;;;;5032519;28;20049;-57
2023/09/13 00:06:39;;;;;;;8.95;2.63;;;18.30;99.90;;;;;;5037779;28;20036;-56
2023/09/13 00:09:08;;;;;;;9.90;2.50;;;18.30;99.90;;;;;;5020673;28;20044;-55
2023/09/13 00:11:37;;;;;;;8.73;2.15;;;18.30;99.90;;;;;;5035805;28;20029;-56
2023/09/13 00:14:03;;;;;;;8.32;1.83;;;18.30;99.90;;;;;;5036555;28;20036;-58
2023/09/13 00:16:28;;;;;;;12.52;2.30;;;18.30;99.90;;;;;;5017330;28;20037;-56
2023/09/13 00:18:54;;;;;;;10.18;2.38;;;18.20;99.90;;;;;;5017340;28;22047;-56
2023/09/13 00:21:20;;;;;;;7.25;1.70;;;18.20;99.90;;;;;;5016692;28;20111;-57
2023/09/13 00:23:47;;;;;;;10.00;2.40;;;18.10;99.90;;;;;;5038809;28;20033;-56
2023/09/13 00:26:14;;;;;;;9.40;2.50;;;18.20;99.90;;;;;;5019619;28;20045;-57
2023/09/13 00:28:40;;;;;;;9.27;2.13;;;18.10;99.90;;;;;;5035736;28;20402;-55
2023/09/13 00:31:09;;;;;;;10.82;2.85;;;18.10;99.90;;;;;;5020553;28;20164;-55
2023/09/13 00:33:35;;;;;;;10.20;2.45;;;18.00;99.90;;;;;;5039973;28;20397;-56
2023/09/13 00:36:00;;;;;;;8.38;2.13;;;18.00;99.90;;;;;;5039947;28;20033;-56
2023/09/13 00:38:26;;;;;;;12.18;2.15;;;18.00;99.90;;;;;;5020574;28;20088;-55
2023/09/13 00:40:52;;;;;;;9.10;2.67;;;18.00;99.90;;;;;;5032809;28;20125;-56
2023/09/13 00:43:18;;;;;;;15.40;2.78;;;18.00;99.90;;;;;;5014363;28;20048;-57
2023/09/13 00:45:46;;;;;;;8.95;2.20;;;18.00;99.90;;;;;;5012192;28;20051;-55
2023/09/13 00:48:12;;;;;;;10.65;2.35;;;17.90;99.90;;;;;;5031334;28;20040;-58
2023/09/13 00:50:37;;;;;;;11.02;2.72;;;17.90;99.90;;;;;;5014415;28;20578;-57
2023/09/13 00:53:04;;;;;;;8.68;2.33;;;17.90;99.90;;;;;;5030431;28;20045;-57
2023/09/13 00:55:31;;;;;;;11.43;1.92;;;17.90;99.90;;;;;;5030780;28;20127;-54
2023/09/13 00:57:57;;;;;;;10.93;2.25;;;17.90;99.90;;;;;;5033200;28;20049;-54
2023/09/13 01:00:26;;;;;;;12.65;2.33;;;17.80;99.90;;;;;;5017494;28;20049;-57
2023/09/13 01:02:53;;;;;;;10.82;1.90;;;17.80;99.90;;;;;;5034145;28;20060;-55
2023/09/13 01:05:19;;;;;;;8.38;2.25;;;17.80;99.90;;;;;;5018219;28;20095;-57
2023/09/13 01:07:47;;;;;;;8.90;2.40;;;17.80;99.90;;;;;;5031627;28;20577;-58
2023/09/13 01:10:13;;;;;;;14.85;2.33;;;17.80;99.90;;;;;;5033061;28;20617;-57
2023/09/13 01:12:38;;;;;;;12.98;2.20;;;17.70;99.90;;;;;;5031953;28;20116;-57
2023/09/13 01:15:08;;;;;;;12.07;2.40;;;17.70;99.90;;;;;;5035611;28;20919;-57
2023/09/13 01:17:57;;;;;;;7.00;2.28;;;17.70;99.90;;;;;;5015240;28;20045;-54
2023/09/13 01:20:38;;;;;;;8.23;1.77;;;17.70;99.90;;;;;;5031503;28;20496;-55
2023/09/13 01:23:45;;;;;;;6.18;2.17;;;17.60;99.90;;;;;;5032422;28;20103;-56
2023/09/13 01:26:37;;;;;;;10.45;2.17;;;17.60;99.90;;;;;;5033847;28;20511;-57
2023/09/13 01:29:05;;;;;;;5.97;2.10;;;17.60;99.90;;;;;;5032204;28;20057;-56
2023/09/13 01:31:33;;;;;;;7.57;1.83;;;17.60;99.90;;;;;;5034623;28;20071;-57
2023/09/13 01:33:58;;;;;;;6.57;1.92;;;17.60;99.90;;;;;;5029968;28;20521;-53
2023/09/13 01:36:24;;;;;;;7.75;1.80;;;17.60;99.90;;;;;;5013266;28;20041;-55
2023/09/13 01:38:50;;;;;;;6.57;1.70;;;17.50;99.90;;;;;;5002536;28;20037;-56
2023/09/13 01:41:31;;;;;;;10.15;2.72;;;17.50;99.90;;;;;;5024048;28;20935;-56
2023/09/13 01:43:59;;;;;;;5.00;1.67;;;17.50;99.90;;;;;;5012632;28;20041;-57
2023/09/13 01:46:32;;;;;;;6.28;1.80;;;17.50;99.90;;;;;;5033920;28;21083;-56
2023/09/13 01:48:59;;;;;;;6.35;2.05;;;17.50;99.90;;;;;;5031182;28;20047;-56
2023/09/13 01:51:26;;;;;;;7.43;1.88;;;17.50;99.90;;;;;;5031356;28;20492;-57
2023/09/13 01:53:56;;;;;;;6.93;1.70;;;17.50;99.90;;;;;;5030485;28;20080;-57
2023/09/13 01:56:22;;;;;;;6.57;1.90;;;17.50;99.90;;;;;;5031818;28;20045;-54
2023/09/13 01:58:48;;;;;;;7.15;1.98;;;17.50;99.90;;;;;;5033065;28;20132;-57
2023/09/13 02:01:15;;;;;;;6.82;1.63;;;17.50;99.90;;;;;;5037003;28;20051;-57
2023/09/13 02:03:41;;;;;;;5.47;1.80;;;17.40;99.90;;;;;;5029025;28;20492;-56
2023/09/13 02:06:06;;;;;;;6.47;1.98;;;17.40;99.90;;;;;;5032972;28;20083;-56
2023/09/13 02:08:32;;;;;;;5.75;1.60;;;17.40;99.90;;;;;;5029152;28;20497;-56
2023/09/13 02:10:58;;;;;;;7.68;1.80;;;17.40;99.90;;;;;;5027249;28;20126;-58
2023/09/13 02:13:23;;;;;;;5.82;1.70;;;17.40;99.90;;;;;;5011567;28;20045;-55
2023/09/13 02:15:49;;;;;;;3.72;1.38;;;17.40;99.90;;;;;;5011676;28;20086;-53
2023/09/13 02:18:15;;;;;;;6.45;2.10;;;17.40;99.90;;;;;;5030775;28;20045;-54
2023/09/13 02:20:40;;;;;;;5.90;1.63;;;17.40;99.90;;;;;;5027995;28;20110;-57
2023/09/13 02:23:06;;;;;;;7.63;1.60;;;17.40;99.90;;;;;;5026947;28;20041;-56
2023/09/13 02:25:36;;;;;;;11.10;2.20;;;17.40;99.90;;;;;;5032371;28;20128;-57
2023/09/13 02:28:03;;;;;;;5.40;1.60;;;17.40;99.90;;;;;;5028533;28;20057;-55
2023/09/13 02:30:30;;;;;;;7.38;2.08;;;17.40;99.90;;;;;;5032335;28;20053;-55
2023/09/13 02:32:56;;;;;;;7.05;1.90;;;17.30;99.90;;;;;;5009140;28;20045;-58
2023/09/13 02:35:22;;;;;;;9.95;1.90;;;17.30;99.90;;;;;;5009557;28;20045;-57
2023/09/13 02:37:48;;;;;;;4.82;1.77;;;17.30;99.90;;;;;;5013153;28;20040;-56
2023/09/13 02:40:13;;;;;;;7.53;1.77;;;17.30;99.90;;;;;;5033168;28;20040;-57
2023/09/13 02:42:39;;;;;;;8.43;2.40;;;17.30;99.90;;;;;;5016772;28;20029;-55
2023/09/13 02:45:06;;;;;;;6.40;2.00;;;17.30;99.90;;;;;;5028929;28;20041;-55
2023/09/13 02:47:32;;;;;;;7.78;2.20;;;17.30;99.90;;;;;;5010900;28;20049;-56
2023/09/13 02:49:57;;;;;;;6.10;2.10;;;17.30;99.90;;;;;;5029513;28;20056;-56
2023/09/13 02:52:32;;;;;;;8.50;2.25;;;17.20;99.90;;;;;;5020980;28;20040;-55
2023/09/13 02:54:58;;;;;;;5.68;1.85;;;17.20;99.90;;;;;;5030644;28;20053;-57
2023/09/13 02:57:24;;;;;;;10.95;1.60;;;17.20;99.90;;;;;;5028966;28;20049;-55
2023/09/13 02:59:50;;;;;;;7.57;1.80;;;17.20;99.90;;;;;;5026413;28;20080;-58
2023/09/13 03:02:16;;;;;;;7.78;1.73;;;17.20;99.90;;;;;;5008426;28;20067;-57
2023/09/13 03:04:42;;;;;;;5.93;1.77;;;17.20;99.90;;;;;;5029699;28;20040;-58
2023/09/13 03:07:08;;;;;;;8.00;1.85;;;17.20;99.90;;;;;;5011252;28;20041;-57
2023/09/13 03:09:34;;;;;;;7.05;1.70;;;17.20;99.90;;;;;;5031304;28;20041;-57
2023/09/13 03:12:01;;;;;;;7.78;1.90;;;17.10;99.90;;;;;;5029042;28;20041;-57
2023/09/13 03:14:30;;;;;;;7.88;1.88;;;17.10;99.90;;;;;;5031787;28;20052;-58
2023/09/13 03:16:56;;;;;;;8.85;1.77;;;17.10;99.90;;;;;;5005861;28;20127;-57
2023/09/13 03:19:21;;;;;;;5.45;1.83;;;17.10;99.90;;;;;;5027442;28;20527;-57
2023/09/13 03:21:47;;;;;;;4.93;1.70;;;17.10;99.90;;;;;;5029944;28;20883;-57
2023/09/13 03:24:13;;;;;;;13.48;2.22;;;17.00;99.90;;;;;;5031811;28;20045;-57
2023/09/13 03:26:39;;;;;;;6.15;1.40;;;17.00;99.90;;;;;;5010271;28;20145;-57
2023/09/13 03:29:04;;;;;;;4.57;1.63;;;17.00;99.90;;;;;;5012623;28;20196;-57
2023/09/13 03:31:32;;;;;;;11.07;2.08;;;17.00;99.90;;;;;;5007813;28;20050;-57
2023/09/13 03:33:59;;;;;;;7.60;1.73;;;17.00;99.90;;;;;;5010643;28;20478;-55
2023/09/13 03:36:28;;;;;;;8.02;1.70;;;16.90;99.90;;;;;;5013099;28;20045;-57
2023/09/13 03:38:54;;;;;;;11.00;2.28;;;16.90;99.90;;;;;;5009827;28;20478;-57
2023/09/13 03:41:22;;;;;;;4.50;1.40;;;16.90;99.90;;;;;;5012411;28;20037;-55
2023/09/13 03:43:49;;;;;;;7.70;1.50;;;16.90;99.90;;;;;;5011392;28;20119;-57
2023/09/13 03:46:15;;;;;;;9.95;1.75;;;16.90;99.90;;;;;;5009113;28;20045;-56
2023/09/13 03:48:41;;;;;;;7.05;1.60;;;16.90;99.90;;;;;;5010597;28;20911;-55
2023/09/13 03:51:07;;;;;;;9.38;2.20;;;16.80;99.90;;;;;;4999212;28;20068;-56
2023/09/13 03:53:34;;;;;;;10.15;2.22;;;16.80;99.90;;;;;;5010937;28;20040;-56
2023/09/13 03:56:01;;;;;;;6.13;1.60;;;16.80;99.90;;;;;;5011457;28;20041;-56
2023/09/13 03:58:27;;;;;;;6.18;1.92;;;16.80;99.90;;;;;;5009175;28;20064;-57
2023/09/13 04:00:53;;;;;;;6.43;1.80;;;16.70;99.90;;;;;;5001338;28;20045;-57
2023/09/13 04:03:20;;;;;;;9.20;2.17;;;16.70;99.90;;;;;;5010197;28;20951;-57
2023/09/13 04:05:46;;;;;;;5.65;1.50;;;16.70;99.90;;;;;;5012360;28;20046;-57
2023/09/13 04:08:12;;;;;;;6.57;2.17;;;16.70;99.90;;;;;;5010602;28;20084;-56
2023/09/13 04:10:38;;;;;;;8.93;1.77;;;16.60;99.90;;;;;;5011746;28;20072;-57
2023/09/13 04:13:04;;;;;;;6.07;1.92;;;16.60;99.90;;;;;;5008951;28;20045;-57
2023/09/13 04:15:31;;;;;;;6.85;1.80;;;16.60;99.90;;;;;;5010574;28;20476;-56
2023/09/13 04:17:56;;;;;;;9.80;2.33;;;16.50;99.90;;;;;;5007664;28;20643;-57
2023/09/13 04:20:22;;;;;;;7.40;1.75;;;16.50;99.90;;;;;;5009298;28;20045;-56
2023/09/13 04:22:48;;;;;;;9.70;2.15;;;16.50;99.90;;;;;;5013292;28;20037;-57
2023/09/13 04:25:14;;;;;;;6.70;1.98;;;16.40;99.90;;;;;;5008831;28;20492;-57
2023/09/13 04:27:44;;;;;;;11.90;2.53;;;16.40;99.90;;;;;;4988606;28;20378;-58
2023/09/13 04:30:10;;;;;;;7.78;2.05;;;16.30;99.90;;;;;;5028698;28;20061;-55
2023/09/13 04:32:36;;;;;;;7.55;1.98;;;16.30;99.90;;;;;;5029794;28;20053;-55
2023/09/13 04:35:02;;;;;;;9.73;2.30;;;16.20;99.90;;;;;;5032656;28;20033;-57
2023/09/13 04:37:29;;;;;;;10.98;2.72;;;16.10;99.90;;;;;;5028211;28;20045;-58
2023/09/13 04:39:54;;;;;;;12.77;2.08;;;16.10;99.90;;;;;;5015731;28;20045;-58
2023/09/13 04:42:20;;;;;;;10.68;2.22;;;16.00;99.90;;;;;;5015288;28;20509;-57
2023/09/13 04:44:46;;;;;;;9.77;2.38;;;15.90;99.90;;;;;;5030044;28;20033;-58
2023/09/13 04:47:12;;;;;;;7.20;2.05;;;15.80;99.90;;;;;;5004517;28;20044;-59
2023/09/13 04:49:37;;;;;;;10.73;2.08;;;15.70;99.90;;;;;;5026796;28;20044;-56
2023/09/13 04:52:03;;;;;;;14.65;2.30;;;15.70;99.90;;;;;;5029693;28;20045;-57
2023/09/13 04:54:29;;;;;;;12.55;2.25;;;15.60;99.90;;;;;;5029489;28;20053;-56
2023/09/13 04:56:55;;;;;;;9.00;2.53;;;15.60;99.90;;;;;;5013791;28;20056;-56
2023/09/13 04:59:24;;;;;;;8.23;2.15;;;15.50;99.90;;;;;;5026150;28;20080;-54
2023/09/13 05:01:50;;;;;;;11.43;2.45;;;15.50;99.90;;;;;;5026026;28;24373;-57
2023/09/13 05:04:16;;;;;;;10.07;2.40;;;15.50;99.90;;;;;;5025438;28;20060;-57
2023/09/13 05:06:41;;;;;;;8.85;2.50;;;15.50;99.90;;;;;;5007862;28;20498;-57
2023/09/13 05:09:07;;;;;;;7.57;2.40;;;15.50;99.90;;;;;;5027235;28;20037;-57
2023/09/13 05:11:33;;;;;;;11.30;2.67;;;15.40;99.90;;;;;;5028806;28;20441;-57
2023/09/13 05:14:12;;;;;;;7.32;2.42;;;15.40;99.90;;;;;;5001603;28;20047;-57
2023/09/13 05:16:37;;;;;;;9.50;2.65;;;15.40;99.90;;;;;;5007910;28;20481;-58
2023/09/13 05:19:03;;;;;;;9.73;2.75;;;15.40;99.90;;;;;;5021072;28;20060;-58
2023/09/13 05:21:29;;;;;;;9.68;2.35;;;15.40;99.90;;;;;;5020561;28;20119;-57
2023/09/13 05:23:55;;;;;;;9.95;2.60;;;15.30;99.90;;;;;;5022291;28;20126;-58
2023/09/13 05:26:21;;;;;;;8.45;2.25;;;15.30;99.90;;;;;;5006345;28;20037;-57
2023/09/13 05:28:46;;;;;;;8.35;2.45;;;15.30;99.90;;;;;;5018565;28;20064;-57
2023/09/13 05:31:13;;;;;;;10.68;2.83;;;15.20;99.90;;;;;;5028916;28;20051;-58
2023/09/13 05:33:39;;;;;;;10.90;2.50;;;15.20;99.90;;;;;;5024687;28;20044;-55
2023/09/13 05:36:09;;;;;;;10.93;2.47;;;15.30;99.90;;;;;;5002759;28;20040;-58
2023/09/13 05:38:35;;;;;;;12.68;2.60;;;15.20;99.90;;;;;;5024028;28;20392;-57
2023/09/13 05:41:08;;;;;;;13.98;2.60;;;15.20;99.90;;;;;;5027349;28;20037;-57
2023/09/13 05:43:38;;;;;;;11.52;2.78;;;15.10;99.90;;;;;;5026290;28;20119;-57
2023/09/13 05:46:04;;;;;;;9.70;2.90;;;15.10;99.90;;;;;;5015503;28;20045;-57
2023/09/13 05:48:30;;;;;;;11.35;2.58;;;15.10;99.90;;;;;;5025632;28;20044;-55
2023/09/13 05:50:56;;;;;;;10.02;2.90;;;15.10;99.90;;;;;;5024113;28;20044;-57
2023/09/13 05:53:22;;;;;;;16.90;3.15;;;15.10;99.90;;;;;;5009398;28;20104;-55
2023/09/13 05:55:49;;;;;;;14.15;3.42;;;15.10;99.90;;;;;;5028202;28;20028;-57
2023/09/13 05:58:15;;;;;;;16.20;4.05;;;15.10;99.90;;;;;;5029974;28;20524;-58
2023/09/13 06:00:46;;;;;;;15.55;3.28;;;15.10;99.90;;;;;;5020675;28;20041;-56
2023/09/13 06:03:12;;;;;;;8.98;2.90;;;15.10;99.90;;;;;;5022833;28;20071;-57
2023/09/13 06:05:37;;;;;;;12.75;3.30;;;15.10;99.90;;;;;;5036864;28;20451;-56
2023/09/13 06:08:04;;;;;;;18.20;3.50;;;15.10;99.90;;;;;;5017704;28;20163;-58
2023/09/13 06:10:30;;;;;;;16.13;3.45;;;15.00;99.90;;;;;;5035818;28;20497;-57
2023/09/13 06:12:55;;;;;;;11.20;3.47;;;15.10;99.90;;;;;;5036745;28;20044;-57
2023/09/13 06:15:21;;;;;;;18.15;3.60;;;15.10;99.90;;;;;;5031687;28;20077;-57
2023/09/13 06:17:47;;;;;;;14.73;3.47;;;15.10;99.90;;;;;;5032911;28;20037;-57
2023/09/13 06:20:13;;;;;;;11.15;3.50;;;15.10;99.90;;;;;;5041069;28;20041;-58
2023/09/13 10:14:25;;;;;;;9.15;3.15;;;17.60;99.90;;;;;;4995551;28;20035;-56
2023/09/13 10:16:51;;;;;;;6.13;2.70;;;17.60;99.90;;;;;;5002451;28;20129;-59
2023/09/13 10:19:17;;;;;;;8.93;2.80;;;17.70;99.90;;;;;;5007702;28;20048;-60
2023/09/13 10:21:43;;;;;;;11.35;2.90;;;17.80;99.90;;;;;;5009457;28;20041;-59
2023/09/13 10:24:10;;;;;;;9.27;3.15;;;18.10;99.90;;;;;;5004926;28;20048;-58
2023/09/13 10:26:37;;;;;;;8.90;2.70;;;18.30;99.90;;;;;;5005826;28;20425;-58
2023/09/13 10:29:12;;;;;;;6.80;2.40;;;18.50;99.90;;;;;;5003719;28;20056;-59
2023/09/13 10:31:43;;;;;;;6.07;2.50;;;18.60;99.90;;;;;;5008565;28;20077;-60
2023/09/13 10:34:18;;;;;;;5.70;2.27;;;18.80;99.90;;;;;;5006117;28;20057;-60
2023/09/13 10:36:50;;;;;;;8.40;2.70;;;19.00;99.90;;;;;;5006158;28;20304;-59
2023/09/13 10:39:18;;;;;;;;;;;19.10;99.90;;;;;;5004598;28;20125;-59
2023/09/13 10:42:07;;;;;;;5.05;2.40;;;19.30;99.90;;;;;;4997573;28;20327;-58
2023/09/13 10:44:37;;;;;;;9.20;2.65;;;19.40;99.90;;;;;;5007894;28;20576;-60
2023/09/13 10:47:07;;;;;;;8.90;2.97;;;19.50;99.90;;;;;;5006151;28;20049;-58
2023/09/13 10:49:38;;;;;;;6.07;2.13;;;19.60;99.90;;;;;;5002201;28;20041;-58
2023/09/13 10:52:05;;;;;;;6.00;2.28;;;19.70;99.90;;;;;;5005399;28;20508;-57
2023/09/13 10:54:31;;;;;;;8.38;2.70;;;19.70;99.90;;;;;;5002357;28;20038;-60
2023/09/13 10:56:58;;;;;;;8.05;2.92;;;19.80;99.90;;;;;;5008716;28;20266;-58
2023/09/13 10:59:25;;;;;;;5.28;2.05;;;19.80;99.90;;;;;;5009754;28;20046;-59
2023/09/13 11:01:51;;;;;;;10.05;2.20;;;19.90;99.90;;;;;;5010896;28;20080;-58
2023/09/13 11:04:23;;;;;;;6.05;2.03;;;19.80;99.90;;;;;;5010918;28;20118;-59
2023/09/13 11:06:51;;;;;;;4.17;1.73;;;19.70;99.90;;;;;;5011243;28;20069;-59
2023/09/13 11:09:32;;;;;;;8.55;2.13;;;19.50;99.90;;;;;;5011130;28;20933;-59
2023/09/13 11:11:58;;;;;;;3.60;1.83;;;19.60;99.90;;;;;;5003575;28;20401;-60
2023/09/13 11:14:26;;;;;;;5.60;1.63;;;19.70;99.90;;;;;;5010834;28;20045;-59
2023/09/13 11:16:52;;;;;;;7.95;1.98;;;19.90;99.90;;;;;;5011090;28;20050;-57
2023/09/13 11:19:24;;;;;;;3.80;1.60;;;19.90;99.90;;;;;;5005139;28;20033;-58
2023/09/13 11:21:52;;;;;;;;;;;19.80;99.90;;;;;;5009974;28;20041;-58
2023/09/13 11:24:41;;;;;;;4.05;1.40;;;19.90;99.90;;;;;;5008990;28;20559;-58
2023/09/13 11:27:25;;;;;;;6.00;1.42;;;20.20;99.90;;;;;;5006011;28;20045;-57
2023/09/13 11:29:58;;;;;;;8.25;1.67;;;20.20;99.90;;;;;;5003421;28;20045;-57
2023/09/13 11:32:29;;;;;;;5.72;1.80;;;20.40;99.90;;;;;;5000122;28;20037;-56
2023/09/13 11:35:00;;;;;;;9.02;1.55;;;20.60;99.90;;;;;;5003535;28;20046;-58
2023/09/13 11:37:27;;;;;;;6.80;1.83;;;20.60;99.90;;;;;;5000061;28;20122;-59
2023/09/13 11:40:12;;;;;;;8.57;1.60;;;20.50;99.90;;;;;;5007534;28;20674;-59
2023/09/13 11:42:40;;;;;;;5.47;1.75;;;20.20;99.90;;;;;;5007451;28;20464;-59
2023/09/13 11:45:09;;;;;;;7.32;1.63;;;19.90;99.90;;;;;;5021335;28;20092;-59
2023/09/13 11:47:36;;;;;;;6.30;1.42;;;19.70;99.90;;;;;;5006829;28;20052;-59
2023/09/13 11:50:03;;;;;;;6.05;1.80;;;19.50;99.90;;;;;;5005835;28;20337;-59
2023/09/13 11:53:09;;;;;;;7.25;1.98;;;19.40;99.90;;;;;;5006250;28;20038;-59
2023/09/13 11:55:39;;;;;;;4.90;1.67;;;19.60;99.90;;;;;;5008316;28;20089;-58
2023/09/13 11:58:05;;;;;;;14.05;1.95;;;19.70;99.90;;;;;;5008296;28;20120;-60
2023/09/13 12:00:30;;;;;;;7.28;1.60;;;19.70;99.90;;;;;;5007588;28;20051;-59
2023/09/13 12:02:56;;;;;;;8.43;1.60;;;19.60;99.90;;;;;;5005739;28;20484;-60
2023/09/13 12:05:24;;;;;;;9.43;1.88;;;19.60;99.90;;;;;;5007253;28;20037;-58
2023/09/13 12:07:50;;;;;;;8.70;2.08;;;19.50;99.90;;;;;;5006438;28;20053;-60
2023/09/13 12:10:16;;;;;;;8.25;1.77;;;19.50;99.90;;;;;;5007749;28;20053;-60
2023/09/13 12:12:42;;;;;;;10.85;1.83;;;19.40;99.90;;;;;;5004480;28;20438;-57
2023/09/13 12:15:15;;;;;;;7.93;1.80;;;19.40;99.90;;;;;;5004300;28;20057;-59
2023/09/13 12:17:41;;;;;;;10.82;2.00;;;19.50;99.90;;;;;;5004167;28;20069;-59
2023/09/13 12:20:10;;;;;;;5.10;1.90;;;19.50;99.90;;;;;;5002785;28;20642;-60
2023/09/13 12:22:42;;;;;;;7.68;1.63;;;19.40;99.90;;;;;;4992002;28;20067;-59
2023/09/13 12:25:13;;;;;;;6.57;1.50;;;19.40;99.90;;;;;;5004376;28;20040;-60
2023/09/13 12:27:40;;;;;;;11.23;1.52;;;19.30;99.90;;;;;;4995097;28;20049;-59
2023/09/13 12:30:08;;;;;;;7.85;1.95;;;19.30;99.90;;;;;;5003265;28;20111;-59
2023/09/13 12:32:34;;;;;;;8.30;2.10;;;19.30;99.90;;;;;;5000987;28;21055;-56
2023/09/13 12:35:01;;;;;;;8.80;1.95;;;19.10;99.90;;;;;;4986160;28;20045;-59
2023/09/13 12:37:27;;;;;;;8.55;1.80;;;19.00;99.90;;;;;;4991172;28;20065;-58
2023/09/13 12:39:54;;;;;;;7.93;1.80;;;18.90;99.90;;;;;;5006329;28;20120;-60
2023/09/13 12:42:20;;;;;;;10.68;2.05;;;18.90;99.90;;;;;;5007245;28;20036;-58
2023/09/13 12:44:47;;;;;;;11.15;2.58;;;18.80;99.90;;;;;;5006405;28;20038;-58
2023/09/13 12:47:17;;;;;;;7.97;1.85;;;18.80;99.90;;;;;;4991330;28;20526;-59
2023/09/13 12:49:43;;;;;;;17.92;2.00;;;18.60;99.90;;;;;;5008311;28;20068;-59
2023/09/13 12:52:09;;;;;;;9.95;2.33;;;18.60;99.90;;;;;;5005599;28;20129;-58
2023/09/13 12:54:40;;;;;;;8.38;2.28;;;18.50;99.90;;;;;;4993702;28;20049;-59
2023/09/13 12:57:09;;;;;;;8.52;2.03;;;18.40;99.90;;;;;;5002781;28;20552;-59
2023/09/13 12:59:45;;;;;;;9.10;1.83;;;18.40;99.90;;;;;;4998673;28;20041;-59
2023/09/13 13:02:18;;;;;;;9.07;2.40;;;18.40;99.90;;;;;;5000761;28;20456;-59
2023/09/13 13:04:44;;;;;;;8.05;1.90;;;18.40;99.90;;;;;;5000881;28;21114;-58
2023/09/13 13:07:19;;;;;;;10.35;2.00;;;18.40;99.90;;;;;;5002526;28;20034;-59
2023/09/13 13:09:48;;;;;;;8.52;2.22;;;18.50;99.90;;;;;;5004849;28;20650;-59
2023/09/13 13:12:15;;;;;;;13.38;1.95;;;18.40;99.90;;;;;;5007242;28;20135;-58
2023/09/13 13:14:49;;;;;;;9.68;2.17;;;18.40;99.90;;;;;;5011411;28;20081;-57
2023/09/13 13:17:14;;;;;;;8.43;2.38;;;18.40;99.90;;;;;;5010847;28;21297;-59
2023/09/13 13:19:40;;;;;;;8.30;2.15;;;18.40;99.90;;;;;;5012557;28;20053;-60
2023/09/13 13:22:07;;;;;;;8.20;1.92;;;18.30;99.90;;;;;;5009765;28;20045;-59
2023/09/13 13:24:33;;;;;;;8.77;2.30;;;18.40;99.90;;;;;;5012624;28;20546;-59
2023/09/13 13:26:59;;;;;;;9.52;1.60;;;18.40;99.90;;;;;;5010641;28;20029;-60
2023/09/13 13:29:24;;;;;;;8.35;1.88;;;18.40;99.90;;;;;;5012307;28;20064;-59
2023/09/13 13:31:50;;;;;;;10.45;2.00;;;18.50;99.90;;;;;;5012539;28;20459;-60
2023/09/13 13:34:16;;;;;;;7.05;1.67;;;18.50;99.90;;;;;;5009507;28;20045;-59
2023/09/13 13:36:42;;;;;;;9.68;1.88;;;18.60;99.90;;;;;;5012110;28;20720;-60
2023/09/13 13:39:14;;;;;;;11.73;2.42;;;18.50;99.70;;;;;;5008913;28;20136;-58
2023/09/13 13:41:41;;;;;;;7.78;2.33;;;18.50;99.50;;;;;;5011769;28;20599;-59
2023/09/13 13:44:07;;;;;;;8.40;2.15;;;18.50;99.40;;;;;;5012315;28;20037;-59
2023/09/13 13:46:33;;;;;;;9.05;1.90;;;18.40;99.30;;;;;;5013220;28;20088;-59
2023/09/13 13:48:59;;;;;;;5.35;2.20;;;18.50;99.50;;;;;;5010549;28;20512;-59
2023/09/13 13:51:24;;;;;;;10.02;1.70;;;18.50;99.60;;;;;;4986108;28;20037;-59
2023/09/13 13:53:50;;;;;;;9.77;2.17;;;18.50;99.80;;;;;;5006575;28;20088;-59
2023/09/13 13:56:16;;;;;;;6.75;1.73;;;18.60;99.70;;;;;;4994557;28;20045;-60
2023/09/13 13:58:42;;;;;;;9.35;2.15;;;18.60;99.40;;;;;;5006853;28;20566;-58
2023/09/13 14:01:07;;;;;;;6.05;1.83;;;18.60;99.20;;;;;;5007269;28;20049;-60
2023/09/13 14:03:33;;;;;;;7.97;2.00;;;18.60;99.00;;;;;;5007517;28;20088;-58
2023/09/13 14:05:59;;;;;;;6.18;1.77;;;18.60;98.60;;;;;;5013508;28;20455;-58
2023/09/13 14:08:25;;;;;;;9.55;1.80;;;18.50;98.40;;;;;;5004763;28;20624;-58
2023/09/13 14:10:53;;;;;;;10.07;2.03;;;18.40;98.60;;;;;;5008064;28;20050;-59
2023/09/13 14:13:19;;;;;;;6.47;1.75;;;18.40;98.70;;;;;;5006360;28;20075;-59
2023/09/13 14:15:46;;;;;;;10.27;2.28;;;18.40;98.70;;;;;;5006615;28;20100;-57
2023/09/13 14:18:12;;;;;;;5.93;1.73;;;18.40;98.90;;;;;;5009501;28;20567;-58
2023/09/13 14:20:41;;;;;;;11.73;1.75;;;18.40;98.90;;;;;;5005785;28;20712;-59
2023/09/13 14:23:11;;;;;;;10.02;1.90;;;18.40;98.90;;;;;;5005138;28;20123;-58
2023/09/13 14:25:37;;;;;;;5.43;1.42;;;18.30;98.80;;;;;;5008987;28;20075;-59
2023/09/13 14:28:05;;;;;;;7.63;1.67;;;18.30;98.70;;;;;;5023058;28;20801;-59
2023/09/13 14:30:31;;;;;;;9.73;2.22;;;18.30;98.60;;;;;;5010162;28;20168;-59
2023/09/13 14:32:57;;;;;;;8.50;2.10;;;18.30;98.50;;;;;;5009978;28;20579;-57
2023/09/13 14:35:23;;;;;;;8.77;1.95;;;18.30;98.50;;;;;;5010753;28;20041;-58
2023/09/13 14:37:50;;;;;;;6.38;1.80;;;18.30;98.20;;;;;;5008695;28;20049;-59
2023/09/13 14:40:15;;;;;;;7.75;1.85;;;18.30;98.20;;;;;;5008198;28;20209;-59
2023/09/13 14:42:41;;;;;;;7.88;2.55;;;18.30;98.20;;;;;;5006963;28;20051;-57
2023/09/13 14:45:07;;;;;;;10.07;2.40;;;18.30;98.50;;;;;;5010438;28;20060;-59
2023/09/13 14:47:33;;;;;;;7.65;2.20;;;18.30;98.60;;;;;;5014211;28;20049;-60
2023/09/13 14:49:59;;;;;;;9.60;2.20;;;18.30;98.50;;;;;;5011144;28;20519;-60
2023/09/13 14:52:25;;;;;;;7.28;1.90;;;18.40;98.50;;;;;;5008332;28;20041;-58
2023/09/13 14:54:51;;;;;;;8.20;2.00;;;18.30;98.50;;;;;;5005813;28;20045;-60
2023/09/13 14:57:17;;;;;;;9.43;2.53;;;18.30;98.20;;;;;;5007474;28;20057;-60
2023/09/13 14:59:43;;;;;;;10.65;2.22;;;18.20;98.20;;;;;;5007704;28;20069;-60
2023/09/13 15:02:08;;;;;;;8.63;2.13;;;18.20;98.30;;;;;;4993951;28;20048;-60
2023/09/13 15:04:34;;;;;;;8.55;2.80;;;18.20;98.30;;;;;;4995590;28;20951;-60
2023/09/13 15:07:00;;;;;;;7.20;1.80;;;18.10;98.40;;;;;;5004109;28;20436;-60
2023/09/13 15:09:26;;;;;;;10.13;2.13;;;18.10;98.40;;;;;;5006160;28;20084;-60
2023/09/13 15:11:51;;;;;;;6.72;1.65;;;18.10;98.40;;;;;;5002354;28;20504;-60
2023/09/13 15:14:17;;;;;;;10.57;2.20;;;18.10;98.60;;;;;;5002856;28;20041;-60
2023/09/13 15:16:49;;;;;;;8.70;2.33;;;18.10;98.70;;;;;;5006216;28;20056;-60
2023/09/13 15:19:14;;;;;;;9.48;1.88;;;18.20;98.70;;;;;;5003514;28;20106;-60
2023/09/13 15:21:41;;;;;;;5.80;1.90;;;18.20;98.50;;;;;;5005441;28;20041;-59
2023/09/13 15:24:06;;;;;;;13.13;2.22;;;18.30;98.50;;;;;;5005660;28;20079;-59
2023/09/13 15:26:32;;;;;;;8.98;2.13;;;18.30;98.00;;;;;;5004327;28;20171;-60
2023/09/13 15:28:58;;;;;;;11.65;2.30;;;18.30;97.70;;;;;;5008310;28;20123;-60
2023/09/13 15:31:27;;;;;;;11.02;3.08;;;18.40;97.90;;;;;;5008116;28;20038;-60
2023/09/13 15:33:53;;;;;;;14.90;2.22;;;18.30;97.70;;;;;;5003418;28;20037;-59
2023/09/13 15:36:19;;;;;;;12.52;2.75;;;18.30;97.70;;;;;;5005698;28;20596;-59
2023/09/13 15:38:45;;;;;;;8.07;2.13;;;18.30;97.80;;;;;;5006036;28;20038;-59
2023/09/13 15:41:12;;;;;;;9.82;2.03;;;18.30;97.90;;;;;;5004013;28;20481;-60
2023/09/13 15:43:39;;;;;;;6.18;1.98;;;18.30;97.90;;;;;;5001330;28;20047;-59
2023/09/13 15:46:04;;;;;;;8.55;2.22;;;18.30;97.90;;;;;;5001748;28;20179;-60
2023/09/13 15:48:30;;;;;;;5.90;1.90;;;18.40;97.90;;;;;;5005851;28;20050;-60
2023/09/13 15:50:56;;;;;;;7.15;2.13;;;18.60;97.70;;;;;;5005610;28;20045;-59
2023/09/13 15:53:22;;;;;;;8.60;2.08;;;18.90;97.60;;;;;;5007218;28;20052;-60
2023/09/13 15:55:48;;;;;;;7.05;2.05;;;19.20;97.20;;;;;;4991670;28;20148;-60
2023/09/13 15:58:13;;;;;;;9.85;2.08;;;19.30;96.80;;;;;;5000270;28;20060;-60
2023/09/13 16:00:41;;;;;;;10.18;1.98;;;19.30;96.50;;;;;;5008517;28;20396;-59
2023/09/13 16:03:06;;;;;;;6.93;2.03;;;19.20;96.10;;;;;;5008562;28;20049;-60
2023/09/13 16:05:33;;;;;;;10.85;2.40;;;19.00;95.80;;;;;;4997486;28;20045;-60
2023/09/13 16:07:59;;;;;;;14.48;2.15;;;18.90;95.90;;;;;;4998578;28;20048;-60
2023/09/13 16:10:24;;;;;;;10.40;2.30;;;18.90;96.20;;;;;;5006014;28;20045;-60
2023/09/13 16:12:50;;;;;;;8.93;1.88;;;19.10;95.90;;;;;;5005752;28;20049;-59
2023/09/13 16:15:16;;;;;;;6.30;1.80;;;19.10;95.40;;;;;;5007174;28;20069;-59
2023/09/13 16:17:42;;;;;;;10.23;1.95;;;19.00;95.30;;;;;;5022662;28;20095;-60
2023/09/13 16:20:10;;;;;;;9.02;2.53;;;19.10;95.50;;;;;;5004536;28;20057;-60
2023/09/13 16:22:35;;;;;;;7.40;2.13;;;19.00;95.40;;;;;;5000987;28;21159;-59
2023/09/13 16:25:03;;;;;;;7.63;1.90;;;18.90;95.50;;;;;;5003688;28;20706;-59
2023/09/13 16:27:32;;;;;;;7.05;1.90;;;18.80;95.80;;;;;;5004936;28;20049;-59
2023/09/13 16:29:58;;;;;;;7.55;2.20;;;18.70;96.00;;;;;;5003632;28;20042;-60
2023/09/13 16:32:24;;;;;;;8.05;2.10;;;18.70;96.20;;;;;;5005035;28;20397;-59
2023/09/13 16:34:50;;;;;;;11.05;2.33;;;18.70;96.30;;;;;;4993225;28;20037;-59
2023/09/13 16:37:16;;;;;;;8.77;2.60;;;18.60;96.20;;;;;;5002813;28;20085;-59
2023/09/13 16:39:41;;;;;;;6.80;2.15;;;18.60;96.00;;;;;;4991154;28;20045;-59